Airfield :
LOGIN :

Register | Disclaimer

   EN    FR    IT 

 










Legend :    VFR   Marginal VFR   IFR   Intensive IFR   Very Intensive IFR
Visi :
Ceiling :
>= 8 km
>= 3000ft
5 to 8 km
1000 to 3000 ft
1500m to 5 km
500 to 1000 ft
800 to 1500m
200 to 500 ft
< 800m
< 200 ft
Symbols :   Thunderstorms  Fog  Heavy snow  Heavy precipitations  Wind > 20 kt
SIGMETs :     Misc.  Thunderstorms  Icing  Turbulence  Mountain Waves  Volcanic Ashes






- Airport Elevation : 2595 ft
- IATA code : SLM


LESA - Salamanca Matacan

CURRENT METAR :
  • 231130Z 28009KT 240V330 9999 FEW018TCU BKN020 13/07 Q1023

EXPIRED METARs :
  • 231100Z 28010KT 240V320 9999 FEW012 BKN020 13/07 Q1023
  • 231030Z 27010KT 9999 FEW012 SCT022 BKN049 11/07 Q1023
  • 231000Z 27008KT 240V320 9999 SCT012 SCT018 BKN027 11/08 Q1023
  • 230930Z 26011KT 9999 SCT017 BKN028 11/07 Q1023
  • 230900Z 27006KT 250V310 9999 FEW014 SCT028 10/08 Q1022

TAF TAF LESA
Valid from the 23 at 09:00 until the 24 at 09:00 UTC


230800Z 2309/2409 VRB05KT 9999 SCT015 SCT030 TX15/2315Z TN03/2407Z
PROB30
TEMPO 2309/2310 BKN010
BECMG 2309/2311 27010KT
TEMPO 2310/2318 4000 SHRA SCT020TCU
BECMG 2317/2319 VRB05KT
PROB40
TEMPO 2400/2408 3000 BR BKN006



MET'MAP, your aeronautical weather chart ! - Copyright ORBIFLY December 2007 - Disclaimer

ORBIFLY MET'MAP TEAM :

Programming & Development : Alexandra Zaïnal
Concept & original design : Baudouin d'Aumeries
Assistance for programming : Marc-Olivier Méhu
Technical & hardware support : Manuel Goepfert

Contact : metmap@orbifly.com




SOURCES & CREDITS :

   NOAA